createdAt,value
2023-05-05T00:00:41.478Z,12.20
2023-05-05T00:03:19.455Z,12.30
2023-05-05T00:05:53.219Z,12.20
2023-05-05T00:08:26.860Z,12.70
2023-05-05T00:10:59.473Z,11.50
2023-05-05T00:13:31.707Z,11.30
2023-05-05T00:16:04.373Z,11.90
2023-05-05T00:18:37.606Z,12.00
2023-05-05T00:21:12.062Z,11.90
2023-05-05T00:24:05.041Z,11.70
2023-05-05T00:26:41.186Z,12.20
2023-05-05T00:29:15.509Z,11.60
2023-05-05T00:32:08.365Z,12.90
2023-05-05T00:34:41.336Z,12.30
2023-05-05T00:37:13.893Z,12.70
2023-05-05T00:39:47.068Z,12.10
2023-05-05T00:42:19.949Z,12.30
2023-05-05T00:44:54.789Z,12.30
2023-05-05T00:47:30.443Z,12.50
2023-05-05T00:50:03.352Z,12.60
2023-05-05T00:52:38.043Z,13.10
2023-05-05T00:55:11.848Z,12.60
2023-05-05T00:57:45.122Z,13.10
2023-05-05T01:00:18.847Z,14.40
2023-05-05T01:02:55.109Z,13.40
2023-05-05T01:05:35.185Z,13.40
2023-05-05T01:08:25.233Z,13.50
2023-05-05T01:11:04.590Z,13.40
2023-05-05T01:13:48.056Z,13.90
2023-05-05T01:16:28.854Z,13.00
2023-05-05T01:19:10.796Z,13.20
2023-05-05T01:21:46.566Z,13.30
2023-05-05T01:24:40.331Z,11.10
2023-05-05T01:27:31.807Z,12.20
2023-05-05T01:30:29.298Z,12.40
2023-05-05T01:33:07.944Z,12.00
2023-05-05T01:35:48.767Z,14.00
2023-05-05T01:38:23.601Z,14.70
2023-05-05T01:41:08.944Z,13.90
2023-05-05T01:43:46.117Z,12.90
2023-05-05T01:46:20.958Z,13.00
2023-05-05T01:48:55.338Z,13.20
2023-05-05T01:51:29.835Z,13.50
2023-05-05T01:54:05.835Z,14.90
2023-05-05T01:56:41.676Z,15.10
2023-05-05T01:59:15.148Z,13.20
2023-05-05T02:01:50.300Z,13.80
2023-05-05T02:04:24.599Z,14.60
2023-05-05T02:07:00.104Z,14.30
2023-05-05T02:09:33.787Z,13.20
2023-05-05T02:12:11.356Z,14.20
2023-05-05T02:14:46.584Z,14.40
2023-05-05T02:17:20.636Z,15.10
2023-05-05T02:19:54.434Z,13.30
2023-05-05T02:22:27.068Z,14.20
2023-05-05T02:25:00.171Z,13.90
2023-05-05T02:27:36.331Z,13.80
2023-05-05T02:30:12.810Z,14.60
2023-05-05T02:32:51.869Z,14.00
2023-05-05T02:35:26.418Z,14.30
2023-05-05T02:38:05.569Z,13.70
2023-05-05T02:40:44.544Z,13.10
2023-05-05T02:43:23.121Z,13.60
2023-05-05T02:45:57.205Z,13.90
2023-05-05T02:48:33.026Z,14.50
2023-05-05T02:51:08.051Z,12.60
2023-05-05T02:53:43.278Z,13.20
2023-05-05T02:56:28.173Z,13.50
2023-05-05T02:59:10.352Z,12.70
2023-05-05T03:01:58.534Z,13.70
2023-05-05T03:04:40.034Z,14.00
2023-05-05T03:07:22.569Z,15.30
2023-05-05T03:10:05.135Z,13.50
2023-05-05T03:12:45.069Z,14.20
2023-05-05T03:15:26.747Z,14.20
2023-05-05T03:18:00.372Z,14.10
2023-05-05T03:20:33.796Z,14.30
2023-05-05T03:23:11.179Z,12.80
2023-05-05T03:25:48.836Z,13.50
2023-05-05T03:28:44.706Z,13.90
2023-05-05T03:31:30.464Z,14.90
2023-05-05T03:34:04.677Z,12.70
2023-05-05T03:36:42.861Z,12.40
2023-05-05T03:39:18.838Z,12.90
2023-05-05T03:41:51.968Z,12.60
2023-05-05T03:44:25.407Z,12.70
2023-05-05T03:46:58.061Z,12.40
2023-05-05T03:49:32.844Z,13.50
2023-05-05T03:52:06.354Z,14.00
2023-05-05T03:54:38.944Z,13.10
2023-05-05T03:57:12.004Z,14.60
2023-05-05T03:59:44.475Z,15.20
2023-05-05T04:02:20.409Z,15.50
2023-05-05T04:04:53.515Z,16.70
2023-05-05T04:07:36.253Z,18.30
2023-05-05T04:10:11.195Z,19.40
2023-05-05T04:12:44.114Z,19.70
2023-05-05T04:15:20.458Z,20.80
2023-05-05T04:17:53.718Z,19.50
2023-05-05T04:20:30.516Z,20.40
2023-05-05T04:23:08.644Z,19.20
2023-05-05T04:25:41.805Z,20.60
2023-05-05T04:28:22.620Z,20.70
2023-05-05T04:30:55.877Z,22.10
2023-05-05T04:33:30.139Z,21.40
2023-05-05T04:36:03.320Z,22.50
2023-05-05T04:38:36.869Z,23.50
2023-05-05T04:41:10.224Z,22.10
2023-05-05T04:43:44.122Z,21.80
2023-05-05T04:46:18.621Z,22.10
2023-05-05T04:48:51.293Z,21.20
2023-05-05T04:51:24.440Z,20.10
2023-05-05T04:53:57.039Z,20.10
2023-05-05T04:56:32.104Z,20.00
2023-05-05T04:59:06.455Z,19.60
2023-05-05T05:01:38.887Z,19.60
2023-05-05T05:04:11.985Z,19.40
2023-05-05T05:06:44.685Z,18.70
2023-05-05T05:09:17.740Z,18.20
2023-05-05T05:11:52.591Z,17.90
2023-05-05T05:14:28.911Z,18.40
2023-05-05T05:17:01.574Z,17.80
2023-05-05T05:19:34.552Z,17.60
2023-05-05T05:22:08.182Z,16.70
2023-05-05T05:24:43.796Z,16.50
2023-05-05T05:27:17.349Z,16.80
2023-05-05T05:29:51.411Z,15.80
2023-05-05T05:32:24.331Z,15.90
2023-05-05T05:34:57.349Z,15.20
2023-05-05T05:37:35.035Z,14.00
2023-05-05T05:40:12.462Z,12.50
2023-05-05T05:42:48.192Z,12.50
2023-05-05T05:45:22.949Z,13.00
2023-05-05T05:47:58.168Z,12.00
2023-05-05T05:50:33.372Z,12.40
2023-05-05T05:53:06.135Z,10.90
2023-05-05T05:55:41.895Z,10.90
2023-05-05T05:58:17.319Z,10.50
2023-05-05T06:00:50.730Z,10.40
2023-05-05T06:03:23.802Z,10.80
2023-05-05T06:06:00.186Z,10.40
2023-05-05T06:08:32.815Z,10.90
2023-05-05T06:11:05.421Z,10.30
2023-05-05T06:13:43.258Z,10.70
2023-05-05T06:16:15.801Z,10.60
2023-05-05T06:18:51.569Z,11.00
2023-05-05T06:21:27.902Z,10.60
2023-05-05T06:24:00.407Z,10.30
2023-05-05T06:26:35.652Z,10.50
2023-05-05T06:29:12.474Z,10.30
2023-05-05T06:31:45.184Z,9.70
2023-05-05T06:34:20.363Z,9.00
2023-05-05T06:36:53.191Z,10.50
2023-05-05T06:39:28.213Z,10.50
2023-05-05T06:42:00.742Z,10.10
2023-05-05T06:44:36.542Z,9.40
2023-05-05T06:47:09.731Z,9.80
2023-05-05T06:50:02.545Z,9.70
2023-05-05T06:52:38.414Z,9.70
2023-05-05T06:55:12.599Z,8.80
2023-05-05T06:57:45.561Z,9.40
2023-05-05T07:00:27.816Z,9.30
2023-05-05T07:03:02.363Z,9.60
2023-05-05T07:05:37.680Z,10.30
2023-05-05T07:08:11.466Z,9.50
2023-05-05T07:10:55.513Z,8.90
2023-05-05T07:13:31.250Z,8.10
2023-05-05T07:16:06.308Z,9.10
2023-05-05T07:18:38.905Z,8.70
2023-05-05T07:21:11.477Z,8.30
2023-05-05T07:23:47.905Z,7.20
2023-05-05T07:26:23.253Z,5.40
2023-05-05T07:28:59.191Z,4.80
2023-05-05T07:31:31.851Z,5.60
2023-05-05T07:34:07.661Z,4.90
2023-05-05T07:36:43.967Z,5.10
2023-05-05T07:39:18.542Z,5.90
2023-05-05T07:41:54.227Z,5.40
2023-05-05T07:44:28.852Z,5.70
2023-05-05T07:47:12.712Z,6.10
2023-05-05T07:49:45.319Z,5.80
2023-05-05T07:52:21.486Z,6.20
2023-05-05T07:55:20.487Z,6.60
2023-05-05T07:57:56.101Z,6.30
2023-05-05T08:00:29.359Z,5.80
2023-05-05T08:03:02.002Z,5.70
2023-05-05T08:05:34.806Z,5.50
2023-05-05T08:08:07.760Z,5.70
2023-05-05T08:10:40.261Z,5.80
2023-05-05T08:13:15.688Z,5.50
2023-05-05T08:15:48.654Z,6.50
2023-05-05T08:18:21.171Z,5.60
2023-05-05T08:20:57.528Z,5.00
2023-05-05T08:23:30.044Z,5.40
2023-05-05T08:26:06.818Z,6.00
2023-05-05T08:28:39.506Z,5.10
2023-05-05T08:31:22.219Z,5.40
2023-05-05T08:33:55.218Z,4.60
2023-05-05T08:36:31.858Z,4.70
2023-05-05T08:39:04.248Z,5.00
2023-05-05T08:41:37.357Z,5.40
2023-05-05T08:44:11.745Z,5.30
2023-05-05T08:46:45.491Z,6.10
2023-05-05T08:49:23.225Z,6.40
2023-05-05T08:51:58.399Z,6.30
2023-05-05T08:54:36.019Z,5.60
2023-05-05T08:57:17.421Z,5.10
2023-05-05T08:59:51.611Z,4.50
2023-05-05T09:02:28.730Z,5.10
2023-05-05T09:05:05.354Z,5.50
2023-05-05T09:07:38.448Z,5.50
2023-05-05T09:10:13.094Z,5.40
2023-05-05T09:12:45.951Z,5.10
2023-05-05T09:15:18.478Z,5.00
2023-05-05T09:17:56.113Z,4.90
2023-05-05T09:20:37.345Z,4.80
2023-05-05T09:23:14.070Z,5.30
2023-05-05T09:25:48.411Z,5.40
2023-05-05T09:28:22.629Z,5.30
2023-05-05T09:31:12.967Z,4.50
2023-05-05T09:33:47.279Z,4.80
2023-05-05T09:36:21.284Z,5.30
2023-05-05T09:39:14.841Z,5.40
2023-05-05T09:41:48.037Z,4.50
2023-05-05T09:44:36.690Z,4.70
2023-05-05T09:47:21.977Z,5.10
2023-05-05T09:50:01.966Z,4.90
2023-05-05T09:52:36.975Z,5.50
2023-05-05T09:55:18.894Z,6.10
2023-05-05T09:57:51.423Z,5.00
2023-05-05T10:00:24.143Z,3.50
2023-05-05T10:03:05.728Z,4.70
2023-05-05T10:06:01.161Z,5.60
2023-05-05T10:08:34.744Z,5.00
2023-05-05T10:11:08.016Z,4.30
2023-05-05T10:13:43.118Z,4.30
2023-05-05T10:16:16.076Z,3.90
2023-05-05T10:18:49.286Z,4.50
2023-05-05T10:21:26.352Z,5.20
2023-05-05T10:24:09.109Z,5.20
2023-05-05T10:26:45.192Z,4.30
2023-05-05T10:29:24.820Z,4.20
2023-05-05T10:32:21.440Z,3.20
2023-05-05T10:35:01.438Z,3.30
2023-05-05T10:37:34.249Z,3.90
2023-05-05T10:40:09.886Z,3.80
2023-05-05T10:42:46.895Z,3.40
2023-05-05T10:45:19.926Z,4.00
2023-05-05T10:47:59.557Z,3.20
2023-05-05T10:50:35.809Z,4.10
2023-05-05T10:53:18.264Z,3.30
2023-05-05T10:55:58.654Z,2.70
2023-05-05T10:58:50.912Z,3.00
2023-05-05T11:01:40.104Z,3.10
2023-05-05T11:04:23.485Z,2.90
2023-05-05T11:07:27.802Z,3.40
2023-05-05T11:10:05.974Z,2.60
2023-05-05T11:13:22.231Z,2.90
2023-05-05T11:15:56.027Z,2.80
2023-05-05T11:18:36.708Z,2.10
2023-05-05T11:21:17.385Z,2.70
2023-05-05T11:23:54.554Z,3.10
2023-05-05T11:26:51.567Z,3.50
2023-05-05T11:29:24.238Z,3.00
2023-05-05T11:32:16.758Z,3.10
2023-05-05T11:34:52.976Z,3.30
2023-05-05T11:37:30.221Z,3.00
2023-05-05T11:40:22.482Z,2.60
2023-05-05T11:43:07.795Z,2.90
2023-05-05T11:45:43.113Z,2.40
2023-05-05T11:48:28.364Z,2.50
2023-05-05T11:51:03.669Z,2.30
2023-05-05T11:53:48.357Z,2.40
2023-05-05T11:56:24.844Z,2.40
2023-05-05T11:59:11.862Z,2.50
2023-05-05T12:01:45.282Z,3.20
2023-05-05T12:04:18.524Z,2.70
2023-05-05T12:06:54.374Z,2.80
2023-05-05T12:09:26.980Z,2.80
2023-05-05T12:12:01.294Z,2.50
2023-05-05T12:14:36.924Z,2.50
2023-05-05T12:17:10.795Z,2.30
2023-05-05T12:19:56.696Z,2.50
2023-05-05T12:22:30.256Z,2.10
2023-05-05T12:25:08.389Z,1.80
2023-05-05T12:27:43.155Z,1.80
2023-05-05T12:30:18.788Z,1.80
2023-05-05T12:32:51.581Z,2.70
2023-05-05T12:35:24.600Z,2.80
2023-05-05T12:37:58.426Z,2.40
2023-05-05T12:40:48.915Z,2.10
2023-05-05T12:43:32.827Z,2.10
2023-05-05T12:46:16.176Z,2.20
2023-05-05T12:49:00.631Z,2.00
2023-05-05T12:51:34.195Z,2.30
2023-05-05T12:54:09.892Z,2.50
2023-05-05T12:56:44.192Z,2.60
2023-05-05T12:59:32.537Z,2.50
2023-05-05T13:02:05.034Z,2.30
2023-05-05T13:04:51.783Z,2.40
2023-05-05T13:07:25.288Z,2.10
2023-05-05T13:10:12.289Z,2.00
2023-05-05T13:12:46.422Z,2.00
2023-05-05T13:15:19.931Z,2.10
2023-05-05T13:17:52.816Z,2.30
2023-05-05T13:20:25.580Z,2.30
2023-05-05T13:22:58.441Z,2.10
2023-05-05T13:25:35.609Z,2.20
2023-05-05T13:28:08.323Z,2.10
2023-05-05T13:30:41.964Z,2.20
2023-05-05T13:33:14.900Z,2.00
2023-05-05T13:35:50.576Z,2.20
2023-05-05T13:38:23.763Z,2.10
2023-05-05T13:40:56.566Z,2.20
2023-05-05T13:43:32.999Z,2.10
2023-05-05T13:46:19.260Z,2.20
2023-05-05T13:48:56.590Z,2.40
2023-05-05T13:51:49.805Z,2.20
2023-05-05T13:54:32.955Z,2.20
2023-05-05T13:57:08.133Z,2.00
2023-05-05T13:59:51.715Z,2.10
2023-05-05T14:02:24.940Z,2.30
2023-05-05T14:05:00.106Z,2.10
2023-05-05T14:07:33.800Z,2.10
2023-05-05T14:10:10.645Z,2.10
2023-05-05T14:12:45.922Z,1.60
2023-05-05T14:15:23.333Z,2.00
2023-05-05T14:17:56.050Z,1.90
2023-05-05T14:20:28.721Z,1.90
2023-05-05T14:23:01.385Z,2.00
2023-05-05T14:25:36.786Z,2.10
2023-05-05T14:28:12.097Z,1.90
2023-05-05T14:30:46.975Z,2.00
2023-05-05T14:33:19.792Z,2.20
2023-05-05T14:35:52.489Z,1.80
2023-05-05T14:38:35.619Z,1.80
2023-05-05T14:41:29.249Z,1.80
2023-05-05T14:44:04.961Z,2.00
2023-05-05T14:46:37.762Z,2.00
2023-05-05T14:49:19.585Z,2.10
2023-05-05T14:51:54.348Z,2.00
2023-05-05T14:54:28.969Z,1.80
2023-05-05T14:57:01.907Z,1.90
2023-05-05T14:59:35.650Z,1.90
2023-05-05T15:02:12.070Z,2.00
2023-05-05T15:05:05.250Z,1.90
2023-05-05T15:07:40.151Z,2.00
2023-05-05T15:10:16.012Z,2.00
2023-05-05T15:12:49.552Z,2.00
2023-05-05T15:15:25.714Z,1.90
2023-05-05T15:17:59.650Z,1.70
2023-05-05T15:20:32.975Z,2.00
2023-05-05T15:23:05.542Z,2.00
2023-05-05T15:25:38.534Z,2.20
2023-05-05T15:28:11.517Z,2.20
2023-05-05T15:30:44.028Z,1.80
2023-05-05T15:33:16.922Z,1.90
2023-05-05T15:35:51.957Z,2.10
2023-05-05T15:38:25.018Z,2.00
2023-05-05T15:41:01.003Z,1.90
2023-05-05T15:43:35.175Z,2.20
2023-05-05T15:46:16.902Z,1.90
2023-05-05T15:48:49.422Z,1.80
2023-05-05T15:51:22.263Z,1.70
2023-05-05T15:54:07.047Z,1.70
2023-05-05T15:56:39.777Z,1.90
2023-05-05T15:59:15.317Z,2.00
2023-05-05T16:01:51.084Z,1.80
2023-05-05T16:04:25.919Z,2.60
2023-05-05T16:07:03.555Z,1.80
2023-05-05T16:09:45.573Z,1.70
2023-05-05T16:12:18.514Z,1.50
2023-05-05T16:14:54.574Z,1.90
2023-05-05T16:17:30.390Z,1.80
2023-05-05T16:20:02.930Z,2.00
2023-05-05T16:22:35.764Z,1.90
2023-05-05T16:25:11.194Z,1.60
2023-05-05T16:27:43.689Z,1.80
2023-05-05T16:30:21.774Z,1.80
2023-05-05T16:32:54.736Z,2.10
2023-05-05T16:35:27.331Z,2.40
2023-05-05T16:38:01.446Z,2.20
2023-05-05T16:40:33.708Z,1.70
2023-05-05T16:43:06.343Z,1.90
2023-05-05T16:45:53.111Z,1.70
2023-05-05T16:48:39.085Z,1.80
2023-05-05T16:51:12.308Z,1.90
2023-05-05T16:53:54.480Z,2.00
2023-05-05T16:56:26.852Z,2.00
2023-05-05T16:59:00.325Z,1.70
2023-05-05T17:01:35.109Z,1.90
2023-05-05T17:04:08.327Z,1.70
2023-05-05T17:06:41.173Z,1.80
2023-05-05T17:09:14.059Z,1.80
2023-05-05T17:11:49.608Z,1.90
2023-05-05T17:14:22.422Z,2.10
2023-05-05T17:16:55.188Z,2.10
2023-05-05T17:19:27.886Z,1.90
2023-05-05T17:22:00.033Z,2.30
2023-05-05T17:24:34.436Z,2.30
2023-05-05T17:27:08.751Z,2.40
2023-05-05T17:29:41.876Z,2.40
2023-05-05T17:32:14.380Z,2.40
2023-05-05T17:34:46.861Z,2.90
2023-05-05T17:37:19.458Z,6.70
2023-05-05T17:39:52.051Z,3.30
2023-05-05T17:42:27.065Z,3.30
2023-05-05T17:44:59.761Z,2.70
2023-05-05T17:47:33.177Z,3.00
2023-05-05T17:50:06.127Z,2.80
2023-05-05T17:52:40.835Z,2.90
2023-05-05T17:55:14.070Z,3.00
2023-05-05T17:57:48.935Z,3.10
2023-05-05T18:00:23.149Z,3.10
2023-05-05T18:02:55.850Z,3.50
2023-05-05T18:05:28.438Z,3.70
2023-05-05T18:08:02.112Z,4.70
2023-05-05T18:10:34.992Z,4.10
2023-05-05T18:13:07.728Z,4.00
2023-05-05T18:15:41.286Z,3.70
2023-05-05T18:18:14.010Z,3.40
2023-05-05T18:20:46.471Z,3.90
2023-05-05T18:23:21.331Z,4.20
2023-05-05T18:25:53.893Z,4.20
2023-05-05T18:28:29.893Z,4.70
2023-05-05T18:31:02.738Z,4.20
2023-05-05T18:33:37.889Z,4.10
2023-05-05T18:36:12.379Z,4.70
2023-05-05T18:38:45.118Z,4.40
2023-05-05T18:41:17.847Z,4.20
2023-05-05T18:43:50.372Z,4.60
2023-05-05T18:46:22.921Z,4.80
2023-05-05T18:48:55.735Z,4.90
2023-05-05T18:51:28.791Z,5.30
2023-05-05T18:54:02.069Z,6.40
2023-05-05T18:56:34.607Z,7.40
2023-05-05T18:59:10.927Z,8.00
2023-05-05T19:01:44.665Z,9.20
2023-05-05T19:04:30.230Z,12.00
2023-05-05T19:07:04.679Z,12.20
2023-05-05T19:09:37.471Z,13.60
2023-05-05T19:12:10.447Z,14.10
2023-05-05T19:14:43.210Z,14.80
2023-05-05T19:17:16.136Z,15.70
2023-05-05T19:19:49.065Z,14.40
2023-05-05T19:22:26.200Z,17.40
2023-05-05T19:24:58.979Z,17.10
2023-05-05T19:27:37.112Z,18.50
2023-05-05T19:30:11.818Z,16.30
2023-05-05T19:32:45.421Z,15.30
2023-05-05T19:35:18.119Z,15.40
2023-05-05T19:37:50.920Z,15.00
2023-05-05T19:40:23.914Z,13.20
2023-05-05T19:42:56.224Z,15.50
2023-05-05T19:45:28.897Z,19.20
2023-05-05T19:48:02.138Z,15.10
2023-05-05T19:50:34.670Z,16.90
2023-05-05T19:53:07.660Z,18.00
2023-05-05T19:55:40.188Z,25.50
2023-05-05T19:58:14.506Z,19.40
2023-05-05T20:00:48.749Z,17.90
2023-05-05T20:03:21.623Z,19.60
2023-05-05T20:05:54.383Z,18.60
2023-05-05T20:08:27.193Z,19.20
2023-05-05T20:10:59.918Z,19.60
2023-05-05T20:13:38.423Z,18.20
2023-05-05T20:16:11.873Z,20.20
2023-05-05T20:18:44.729Z,18.70
2023-05-05T20:21:18.062Z,16.10
2023-05-05T20:23:54.595Z,16.10
2023-05-05T20:26:27.021Z,15.60
2023-05-05T20:29:03.243Z,18.80
2023-05-05T20:31:39.198Z,16.40
2023-05-05T20:34:12.868Z,16.30
2023-05-05T20:36:49.078Z,16.00
2023-05-05T20:39:21.550Z,17.00
2023-05-05T20:41:54.218Z,16.70
2023-05-05T20:44:27.345Z,15.40
2023-05-05T20:47:02.666Z,14.90
2023-05-05T20:49:37.919Z,15.90
2023-05-05T20:52:10.768Z,15.30
2023-05-05T20:54:43.312Z,15.20
2023-05-05T20:57:15.983Z,14.60
2023-05-05T20:59:59.264Z,14.10
2023-05-05T21:02:32.502Z,12.80
2023-05-05T21:05:05.352Z,12.30
2023-05-05T21:07:37.785Z,10.80
2023-05-05T21:10:13.809Z,11.70
2023-05-05T21:12:49.443Z,10.30
2023-05-05T21:15:21.936Z,10.60
2023-05-05T21:17:54.617Z,10.70
2023-05-05T21:20:27.391Z,11.10
2023-05-05T21:23:01.211Z,9.60
2023-05-05T21:25:34.002Z,10.20
2023-05-05T21:28:09.792Z,9.90
2023-05-05T21:30:42.742Z,9.60
2023-05-05T21:33:16.949Z,9.30
2023-05-05T21:35:49.182Z,10.10
2023-05-05T21:38:23.779Z,8.80
2023-05-05T21:41:00.262Z,8.40
2023-05-05T21:43:32.814Z,7.90
2023-05-05T21:46:06.547Z,8.10
2023-05-05T21:48:41.569Z,8.40
2023-05-05T21:51:14.150Z,7.80
2023-05-05T21:53:46.914Z,7.50
2023-05-05T21:56:19.897Z,7.40
2023-05-05T21:58:53.746Z,7.30
2023-05-05T22:01:26.050Z,7.80
2023-05-05T22:03:59.210Z,6.90
2023-05-05T22:06:32.628Z,7.60
2023-05-05T22:09:05.177Z,7.60
2023-05-05T22:11:37.562Z,8.00
2023-05-05T22:14:10.507Z,7.60
2023-05-05T22:16:43.170Z,8.10
2023-05-05T22:19:15.941Z,7.80
2023-05-05T22:21:48.196Z,7.90
2023-05-05T22:24:20.997Z,7.40
2023-05-05T22:26:54.139Z,7.70
2023-05-05T22:29:27.027Z,7.50
2023-05-05T22:31:59.888Z,6.80
2023-05-05T22:34:32.319Z,7.20
2023-05-05T22:37:06.170Z,7.20
2023-05-05T22:39:39.316Z,7.30
2023-05-05T22:42:11.820Z,6.20
2023-05-05T22:44:44.237Z,6.30
2023-05-05T22:47:16.702Z,6.80
2023-05-05T22:49:49.359Z,6.60
2023-05-05T22:52:25.732Z,6.70
2023-05-05T22:54:58.438Z,5.70
2023-05-05T22:57:30.966Z,6.00
2023-05-05T23:00:08.706Z,5.70
2023-05-05T23:02:43.464Z,5.80
2023-05-05T23:05:16.884Z,5.80
2023-05-05T23:07:49.579Z,6.00
2023-05-05T23:10:22.437Z,5.90
2023-05-05T23:12:54.976Z,5.80
2023-05-05T23:15:29.229Z,5.80
2023-05-05T23:18:01.546Z,5.80
2023-05-05T23:20:34.133Z,5.50
2023-05-05T23:23:06.554Z,5.90
2023-05-05T23:25:39.074Z,5.50
2023-05-05T23:28:16.531Z,5.20
2023-05-05T23:30:49.204Z,5.40
2023-05-05T23:33:21.884Z,5.40
2023-05-05T23:35:54.486Z,5.30
2023-05-05T23:38:27.276Z,6.00
2023-05-05T23:41:01.431Z,5.40
2023-05-05T23:43:34.376Z,5.70
2023-05-05T23:46:07.192Z,6.00
2023-05-05T23:48:42.963Z,5.30
2023-05-05T23:51:15.663Z,5.60
2023-05-05T23:53:49.314Z,6.40
2023-05-05T23:56:21.948Z,5.40
2023-05-05T23:58:55.251Z,6.20
